Time;durP1;ratioP1;P1;durP2;ratioP2;P2;SDS_P1;SDS_P2;PMS_P1;PMS_P2;Temp;Humidity;BMP_temperature;BMP_pressure;BME280_temperature;BME280_humidity;BME280_pressure;Samples;Min_cycle;Max_cycle;Signal;HPM_P1;HPM_P2
2021/07/07 00:00:11;;;;;;;7.32;4.50;;;;;;;19.03;66.77;96296.59;5052812;28;20017;-63
2021/07/07 00:02:36;;;;;;;8.00;4.70;;;;;;;19.03;67.03;96301.06;5052724;28;20659;-62
2021/07/07 00:05:03;;;;;;;4.95;4.50;;;;;;;18.92;67.25;96289.47;5052827;28;20060;-64
2021/07/07 00:07:29;;;;;;;4.68;4.25;;;;;;;18.96;67.25;96307.81;5052849;28;20413;-65
2021/07/07 00:09:54;;;;;;;5.18;4.18;;;;;;;18.92;67.42;96299.22;5052757;28;20024;-61
2021/07/07 00:12:20;;;;;;;6.78;4.65;;;;;;;18.94;67.75;96303.44;5052647;28;20028;-66
2021/07/07 00:14:46;;;;;;;8.07;4.03;;;;;;;18.96;67.31;96307.81;5052729;28;20017;-61
2021/07/07 00:17:11;;;;;;;7.30;5.18;;;;;;;19.00;67.85;96310.09;5052512;28;20029;-62
2021/07/07 00:19:37;;;;;;;6.53;4.30;;;;;;;18.99;67.62;96304.91;5052674;28;20067;-66
2021/07/07 00:22:03;;;;;;;5.55;4.70;;;;;;;19.01;67.46;96303.84;5052563;28;20041;-65
2021/07/07 00:24:29;;;;;;;7.40;4.00;;;;;;;19.04;67.34;96302.75;5054700;28;20075;-61
2021/07/07 00:26:55;;;;;;;5.22;4.50;;;;;;;19.05;67.60;96305.28;5056283;28;20029;-61
2021/07/07 00:29:20;;;;;;;6.88;4.32;;;;;;;19.11;68.29;96305.81;5056287;28;20017;-61
2021/07/07 00:31:46;;;;;;;5.53;4.40;;;;;;;19.08;67.47;96312.19;5056294;28;20417;-64
2021/07/07 00:34:11;;;;;;;7.60;4.82;;;;;;;19.06;67.36;96311.44;5056241;28;20033;-61
2021/07/07 00:36:37;;;;;;;4.93;4.50;;;;;;;19.09;67.57;96313.03;5056029;28;20104;-64
2021/07/07 00:39:04;;;;;;;6.55;4.57;;;;;;;19.15;67.81;96324.00;5056276;28;20033;-62
2021/07/07 00:41:30;;;;;;;4.47;3.88;;;;;;;19.13;67.31;96317.97;5056148;28;20485;-62
2021/07/07 00:43:56;;;;;;;5.43;4.05;;;;;;;19.13;67.54;96322.44;5056169;28;20017;-62
2021/07/07 00:46:22;;;;;;;9.93;5.75;;;;;;;19.13;68.07;96322.44;5055916;28;20017;-64
2021/07/07 00:48:48;;;;;;;4.97;4.47;;;;;;;19.09;67.81;96323.63;5055826;28;20056;-64
2021/07/07 00:51:15;;;;;;;6.03;4.78;;;;;;;19.07;68.21;96326.38;5055813;28;20013;-63
2021/07/07 00:53:42;;;;;;;7.78;4.40;;;;;;;19.02;68.74;96323.25;5055873;28;20021;-64
2021/07/07 00:56:10;;;;;;;5.30;4.50;;;;;;;18.94;68.54;96322.00;5055844;28;20029;-63
2021/07/07 00:58:37;;;;;;;5.43;3.95;;;;;;;18.93;68.30;96322.97;5054352;28;20025;-63
2021/07/07 01:01:06;;;;;;;6.95;4.00;;;;;;;18.82;68.91;96323.75;5055831;28;20028;-61
2021/07/07 01:03:33;;;;;;;5.10;4.60;;;;;;;18.82;68.93;96322.94;5055809;28;20020;-63
2021/07/07 01:05:58;;;;;;;4.65;4.22;;;;;;;18.85;69.24;96333.31;5055592;28;20370;-63
2021/07/07 01:08:24;;;;;;;5.50;4.53;;;;;;;18.80;69.41;96331.00;5055645;28;20029;-61
2021/07/07 01:10:50;;;;;;;5.75;4.65;;;;;;;18.79;68.92;96326.63;5055587;28;20421;-61
2021/07/07 01:13:15;;;;;;;9.40;4.88;;;;;;;18.84;69.26;96323.66;5055516;28;20366;-62
2021/07/07 01:15:45;;;;;;;7.03;4.80;;;;;;;18.82;69.57;96320.28;5055675;28;20100;-62
2021/07/07 01:18:11;;;;;;;9.50;5.10;;;;;;;18.80;69.90;96322.19;5055370;28;20466;-62
2021/07/07 01:20:37;;;;;;;5.63;4.90;;;;;;;18.75;69.92;96319.06;5055495;28;20024;-63
2021/07/07 01:23:03;;;;;;;4.63;4.22;;;;;;;18.77;69.99;96325.06;5055368;28;20025;-65
2021/07/07 01:25:29;;;;;;;8.50;4.95;;;;;;;18.75;70.41;96330.47;5055380;28;20111;-60
2021/07/07 01:27:57;;;;;;;6.45;4.82;;;;;;;18.71;70.31;96329.03;5055284;28;20544;-63
2021/07/07 01:30:23;;;;;;;6.15;5.50;;;;;;;18.67;70.46;96320.44;5055268;28;20064;-63
2021/07/07 01:32:51;;;;;;;5.25;4.72;;;;;;;18.62;70.65;96322.63;5055074;28;20036;-63
2021/07/07 01:35:17;;;;;;;5.53;4.90;;;;;;;18.62;70.90;96319.09;5054903;28;20021;-62
2021/07/07 01:37:44;;;;;;;6.55;4.82;;;;;;;18.62;71.04;96335.00;5054884;28;20117;-64
2021/07/07 01:40:12;;;;;;;5.18;4.68;;;;;;;18.62;71.17;96327.06;5055076;28;20029;-64
2021/07/07 01:42:38;;;;;;;6.18;5.13;;;;;;;18.64;71.65;96327.78;5055037;28;20029;-64
2021/07/07 01:45:06;;;;;;;5.82;5.20;;;;;;;18.62;71.68;96324.41;5054923;28;20128;-63
2021/07/07 01:47:32;;;;;;;7.38;5.13;;;;;;;18.64;71.37;96328.66;5054452;28;20456;-65
2021/07/07 01:49:59;;;;;;;5.97;5.10;;;;;;;18.67;71.38;96319.63;5054952;28;20025;-64
2021/07/07 01:52:24;;;;;;;8.68;4.93;;;;;;;18.71;71.43;96321.09;5054669;28;20090;-62
2021/07/07 01:54:50;;;;;;;7.40;4.85;;;;;;;18.73;71.21;96323.63;5054698;28;20021;-63
2021/07/07 01:57:16;;;;;;;8.73;5.13;;;;;;;18.77;71.54;96325.06;5054562;28;20032;-64
2021/07/07 01:59:41;;;;;;;6.50;4.47;;;;;;;18.78;71.36;96338.19;5054512;28;20060;-65
2021/07/07 02:02:07;;;;;;;6.57;4.97;;;;;;;18.84;71.47;96333.41;5054719;28;20025;-65
2021/07/07 02:04:33;;;;;;;6.03;5.38;;;;;;;18.81;71.80;96337.97;5054599;28;20032;-63
2021/07/07 02:06:59;;;;;;;6.57;5.70;;;;;;;18.81;71.55;96340.63;5054505;28;20108;-64
2021/07/07 02:09:24;;;;;;;6.75;4.90;;;;;;;18.86;72.23;96342.06;5054390;28;20063;-61
2021/07/07 02:11:50;;;;;;;6.40;5.80;;;;;;;18.86;72.02;96342.06;5054491;28;20106;-66
2021/07/07 02:14:16;;;;;;;6.72;5.97;;;;;;;18.92;72.38;96328.38;5054296;28;20021;-62
2021/07/07 02:16:42;;;;;;;7.47;6.05;;;;;;;18.97;73.02;96338.63;5054390;28;20032;-65
2021/07/07 02:19:07;;;;;;;6.05;5.55;;;;;;;19.01;72.82;96340.94;5054306;28;20025;-64
2021/07/07 02:21:33;;;;;;;8.50;5.78;;;;;;;19.04;73.08;96343.34;5054253;28;20032;-62
2021/07/07 02:23:58;;;;;;;6.72;5.88;;;;;;;19.06;73.06;96344.06;5054166;28;20060;-61
2021/07/07 02:26:24;;;;;;;7.25;6.55;;;;;;;19.09;73.09;96339.53;5054191;28;20029;-64
2021/07/07 02:28:50;;;;;;;6.82;6.00;;;;;;;19.09;73.19;96332.44;5054054;28;20385;-63
2021/07/07 02:31:15;;;;;;;6.80;6.10;;;;;;;19.16;73.22;96336.31;5054066;28;20433;-64
2021/07/07 02:33:41;;;;;;;6.57;5.97;;;;;;;19.16;73.24;96341.59;5052780;28;20379;-65
2021/07/07 02:36:07;;;;;;;7.28;6.18;;;;;;;19.23;73.69;96341.97;5053823;28;20528;-64
2021/07/07 02:38:32;;;;;;;7.38;5.82;;;;;;;19.28;73.68;96344.28;5053825;28;20033;-63
2021/07/07 02:40:58;;;;;;;6.38;5.78;;;;;;;19.26;73.57;96343.56;5053819;28;20168;-63
2021/07/07 02:43:25;;;;;;;7.22;5.13;;;;;;;19.31;73.55;96344.03;5053745;28;20029;-63
2021/07/07 02:45:51;;;;;;;7.15;5.30;;;;;;;19.36;73.33;96346.34;5053561;28;20478;-64
2021/07/07 02:48:17;;;;;;;9.43;5.47;;;;;;;19.36;73.36;96349.00;5053076;28;20033;-63
2021/07/07 02:50:44;;;;;;;7.00;5.32;;;;;;;19.35;73.69;96347.31;5053758;28;20378;-60
2021/07/07 02:53:11;;;;;;;9.48;6.25;;;;;;;19.37;73.85;96348.03;5053597;28;20017;-64
2021/07/07 02:55:37;;;;;;;9.27;5.60;;;;;;;19.38;73.74;96347.09;5053615;28;20060;-62
2021/07/07 02:58:04;;;;;;;7.55;5.78;;;;;;;19.42;73.75;96352.00;5053590;28;20473;-62
2021/07/07 03:00:29;;;;;;;6.18;5.07;;;;;;;19.42;73.51;96349.34;5053446;28;20029;-63
2021/07/07 03:03:00;;;;;;;6.50;5.82;;;;;;;19.48;73.08;96355.16;5053530;28;20536;-64
2021/07/07 03:05:28;;;;;;;7.72;5.30;;;;;;;19.53;73.20;96347.69;5053663;28;20053;-61
2021/07/07 03:07:54;;;;;;;7.05;5.32;;;;;;;19.57;73.04;96362.41;5053459;28;20031;-66
2021/07/07 03:10:20;;;;;;;7.55;6.15;;;;;;;19.63;73.22;96355.78;5053369;28;20428;-64
2021/07/07 03:12:45;;;;;;;6.82;6.10;;;;;;;19.68;73.01;96356.25;5053328;28;20109;-63
2021/07/07 03:15:12;;;;;;;8.35;5.75;;;;;;;19.74;72.78;96360.25;5053328;28;20021;-61
2021/07/07 03:17:37;;;;;;;6.05;5.45;;;;;;;19.80;72.75;96363.25;5053100;28;20112;-62
2021/07/07 03:20:05;;;;;;;8.77;5.45;;;;;;;19.83;72.62;96360.38;5053248;28;20120;-66
2021/07/07 03:22:30;;;;;;;6.13;5.55;;;;;;;19.86;72.16;96361.09;5053167;28;20025;-65
2021/07/07 03:24:56;;;;;;;8.88;5.28;;;;;;;19.94;72.10;96367.50;5053029;28;20370;-61
2021/07/07 03:27:21;;;;;;;6.22;5.10;;;;;;;19.98;71.79;96361.94;5053168;28;20078;-62
2021/07/07 03:29:47;;;;;;;4.95;4.13;;;;;;;20.02;71.21;96361.59;5053260;28;20057;-65
2021/07/07 03:32:12;;;;;;;5.32;4.82;;;;;;;20.13;71.05;96359.88;5053230;28;20497;-64
2021/07/07 03:34:38;;;;;;;6.32;4.70;;;;;;;20.37;69.54;96364.19;5053056;28;20462;-62
2021/07/07 03:37:04;;;;;;;8.30;5.10;;;;;;;20.66;69.32;96359.19;5052948;28;20025;-61
2021/07/07 03:39:29;;;;;;;7.85;4.30;;;;;;;20.97;69.05;96363.78;5052908;28;20029;-66
2021/07/07 03:41:55;;;;;;;5.63;4.55;;;;;;;21.29;68.74;96362.91;5053011;28;20024;-62
2021/07/07 03:44:20;;;;;;;5.20;4.70;;;;;;;21.62;68.00;96362.81;5053141;28;20031;-62
2021/07/07 03:46:46;;;;;;;6.70;4.15;;;;;;;21.98;66.59;96362.44;5052978;28;20040;-65
2021/07/07 03:49:11;;;;;;;7.63;4.43;;;;;;;22.29;65.86;96364.19;5052623;28;20045;-64
2021/07/07 03:51:37;;;;;;;4.22;3.83;;;;;;;22.38;65.30;96367.88;5052993;28;20024;-63
2021/07/07 03:54:03;;;;;;;3.92;3.60;;;;;;;22.28;64.56;96374.03;5052995;28;20021;-66
2021/07/07 03:56:28;;;;;;;5.15;4.43;;;;;;;22.21;64.98;96373.72;5052900;28;20119;-63
2021/07/07 03:58:54;;;;;;;7.72;4.38;;;;;;;22.09;65.10;96378.31;5054075;28;20029;-64
2021/07/07 04:01:20;;;;;;;6.70;4.63;;;;;;;22.02;64.92;96374.50;5056805;28;20095;-61
2021/07/07 04:03:45;;;;;;;4.78;4.20;;;;;;;22.00;65.51;96379.09;5056734;28;20143;-62
2021/07/07 04:06:11;;;;;;;6.20;4.78;;;;;;;21.96;65.16;96370.56;5056826;28;20033;-65
2021/07/07 04:08:38;;;;;;;6.60;4.32;;;;;;;21.98;65.73;96378.41;5056759;28;20013;-65
2021/07/07 04:11:04;;;;;;;6.38;4.00;;;;;;;21.96;66.21;96375.88;5056627;28;20021;-65
2021/07/07 04:13:30;;;;;;;6.50;4.95;;;;;;;21.90;66.97;96372.91;5056648;28;20386;-63
2021/07/07 04:15:56;;;;;;;8.57;5.30;;;;;;;21.92;66.34;96381.63;5056565;28;20032;-62
2021/07/07 04:18:22;;;;;;;8.13;5.22;;;;;;;21.94;66.12;96380.50;5056597;28;20048;-61
2021/07/07 04:20:48;;;;;;;6.30;4.50;;;;;;;22.01;65.82;96380.81;5056589;28;20482;-64
2021/07/07 04:23:14;;;;;;;7.93;4.20;;;;;;;22.09;68.43;96383.63;5056493;28;20048;-62
2021/07/07 04:25:41;;;;;;;4.88;4.38;;;;;;;22.13;65.79;96370.06;5056356;28;20424;-62
2021/07/07 04:28:07;;;;;;;5.15;4.32;;;;;;;22.18;67.23;96375.81;5056390;28;20025;-66
2021/07/07 04:30:34;;;;;;;5.57;4.68;;;;;;;22.20;67.99;96388.03;5056442;28;20025;-64
2021/07/07 04:32:59;;;;;;;7.50;4.47;;;;;;;22.24;67.11;96380.59;5056241;28;20067;-64
2021/07/07 04:35:25;;;;;;;6.07;5.22;;;;;;;22.31;66.03;96387.06;5056289;28;20021;-66
2021/07/07 04:37:51;;;;;;;5.47;5.05;;;;;;;22.39;66.82;96391.72;5056059;28;20028;-64
2021/07/07 04:40:19;;;;;;;8.32;5.10;;;;;;;22.51;68.92;96392.44;5054977;28;20033;-66
2021/07/07 04:42:45;;;;;;;5.53;5.03;;;;;;;22.59;67.71;96394.47;5056117;28;20029;-64
2021/07/07 04:45:12;;;;;;;7.55;5.15;;;;;;;22.64;68.00;96389.56;5055941;28;20021;-65
2021/07/07 04:47:38;;;;;;;8.95;4.97;;;;;;;22.75;67.18;96398.41;5055708;28;20040;-65
2021/07/07 04:50:06;;;;;;;5.43;4.88;;;;;;;22.82;66.22;96396.88;5055850;28;20158;-65
2021/07/07 04:52:32;;;;;;;5.93;4.60;;;;;;;22.91;65.00;96392.53;5055886;28;20029;-64
2021/07/07 04:54:57;;;;;;;6.07;5.03;;;;;;;23.00;65.77;96398.84;5055930;28;20017;-64
2021/07/07 04:57:23;;;;;;;6.40;4.60;;;;;;;23.14;63.63;96400.25;5055848;28;20048;-64
2021/07/07 04:59:48;;;;;;;6.55;4.75;;;;;;;23.20;65.60;96400.53;5055984;28;20029;-64
2021/07/07 05:02:14;;;;;;;5.68;4.70;;;;;;;23.31;66.21;96406.69;5055708;28;20141;-61
2021/07/07 05:04:39;;;;;;;5.32;4.82;;;;;;;23.40;66.99;96400.53;5055643;28;20028;-63
2021/07/07 05:07:05;;;;;;;8.13;5.10;;;;;;;23.50;67.94;96399.69;5055747;28;20482;-64
2021/07/07 05:09:30;;;;;;;6.22;4.47;;;;;;;23.60;65.21;96404.00;5055191;28;20025;-64
2021/07/07 05:11:56;;;;;;;6.75;4.60;;;;;;;23.71;64.99;96408.34;5055575;28;20547;-63
2021/07/07 05:14:22;;;;;;;5.97;5.35;;;;;;;23.87;65.97;96414.91;5055439;28;20425;-66
2021/07/07 05:16:47;;;;;;;5.57;4.57;;;;;;;24.08;66.07;96413.88;5055395;28;20032;-66
2021/07/07 05:19:13;;;;;;;8.73;5.00;;;;;;;24.31;64.49;96418.84;5055488;28;20104;-67
2021/07/07 05:21:38;;;;;;;6.30;4.95;;;;;;;24.42;64.09;96409.78;5055475;28;20083;-63
2021/07/07 05:24:06;;;;;;;4.68;4.18;;;;;;;24.44;62.40;96415.84;5055327;28;20040;-65
2021/07/07 05:26:32;;;;;;;5.63;4.72;;;;;;;24.41;61.08;96416.97;5055182;28;20052;-62
2021/07/07 05:28:57;;;;;;;5.50;4.75;;;;;;;24.59;61.50;96416.19;5055313;28;20022;-64
2021/07/07 05:31:23;;;;;;;4.90;4.43;;;;;;;24.79;59.70;96421.38;5055341;28;20362;-66
2021/07/07 05:33:52;;;;;;;6.53;4.47;;;;;;;24.96;58.78;96431.28;5053862;28;20024;-66
2021/07/07 05:36:17;;;;;;;7.28;4.63;;;;;;;24.92;57.10;96429.09;5055050;28;20029;-67
2021/07/07 05:38:42;;;;;;;4.80;4.40;;;;;;;24.78;58.66;96433.06;5054901;28;20040;-62
2021/07/07 05:41:08;;;;;;;7.45;4.22;;;;;;;24.64;58.94;96435.28;5055003;28;20478;-65
2021/07/07 05:43:34;;;;;;;4.90;4.50;;;;;;;24.58;59.88;96435.88;5055044;28;20101;-65
2021/07/07 05:45:59;;;;;;;6.68;4.75;;;;;;;24.60;60.45;96431.22;5054880;28;20028;-64
2021/07/07 05:48:26;;;;;;;7.85;4.53;;;;;;;24.56;61.15;96430.66;5054612;28;20045;-63
2021/07/07 05:50:53;;;;;;;5.22;4.53;;;;;;;24.61;60.35;96436.41;5054722;28;20439;-64
2021/07/07 05:53:18;;;;;;;6.75;4.82;;;;;;;24.64;60.18;96440.63;5054628;28;20049;-62
2021/07/07 05:55:44;;;;;;;6.57;4.18;;;;;;;24.67;60.99;96447.50;5054921;28;20055;-60
2021/07/07 05:58:09;;;;;;;5.53;5.00;;;;;;;24.65;61.17;96438.78;5054711;28;20425;-65
2021/07/07 06:00:35;;;;;;;9.32;4.72;;;;;;;24.64;60.99;96448.63;5054675;28;20075;-64
2021/07/07 06:03:00;;;;;;;5.15;4.65;;;;;;;24.67;60.11;96447.50;5054651;28;20025;-63
2021/07/07 06:05:27;;;;;;;5.97;4.70;;;;;;;24.72;61.00;96451.38;5054576;28;20033;-63
2021/07/07 06:07:54;;;;;;;6.03;4.63;;;;;;;24.77;60.93;96456.28;5054470;28;20031;-64
2021/07/07 06:10:23;;;;;;;4.72;4.32;;;;;;;24.92;61.18;96456.66;5054383;28;20032;-62
2021/07/07 06:12:48;;;;;;;14.75;5.10;;;;;;;24.96;59.66;96455.34;5054428;28;20443;-62
2021/07/07 06:15:15;;;;;;;4.70;4.20;;;;;;;24.88;60.07;96457.97;5054287;28;20096;-63
2021/07/07 06:17:41;;;;;;;8.88;4.97;;;;;;;24.83;59.94;96455.69;5054152;28;20025;-62
2021/07/07 06:20:10;;;;;;;6.88;4.45;;;;;;;24.83;59.73;96452.22;5054154;28;20052;-62
2021/07/07 06:22:37;;;;;;;5.18;4.68;;;;;;;24.91;59.73;96459.47;5053508;28;20029;-66
2021/07/07 06:25:04;;;;;;;7.72;4.90;;;;;;;25.03;60.67;96462.78;5054183;28;20419;-62
2021/07/07 06:27:29;;;;;;;5.18;4.68;;;;;;;25.17;60.37;96469.44;5054063;28;20048;-62
2021/07/07 06:29:55;;;;;;;7.65;4.40;;;;;;;25.27;59.28;96469.38;5054058;28;20467;-60
2021/07/07 06:32:20;;;;;;;4.90;4.30;;;;;;;25.33;59.05;96469.59;5053952;28;20082;-61
2021/07/07 06:34:46;;;;;;;6.97;5.18;;;;;;;25.35;61.90;96469.47;5053956;28;20100;-62
2021/07/07 06:37:12;;;;;;;6.47;5.00;;;;;;;25.39;60.17;96483.34;5053857;28;20033;-64
2021/07/07 06:39:38;;;;;;;8.20;5.10;;;;;;;25.43;59.57;96485.56;5053775;28;20039;-64
2021/07/07 06:42:04;;;;;;;7.00;4.82;;;;;;;25.42;59.46;96488.41;5054008;28;20104;-61
2021/07/07 06:44:30;;;;;;;4.93;4.47;;;;;;;25.48;59.75;96485.13;5053757;28;20048;-64
2021/07/07 06:46:55;;;;;;;7.45;5.05;;;;;;;25.44;59.62;96489.09;5053565;28;20479;-63
2021/07/07 06:49:21;;;;;;;6.47;5.05;;;;;;;25.32;60.05;96488.50;5053629;28;20021;-64
2021/07/07 06:51:48;;;;;;;12.15;5.45;;;;;;;25.31;61.03;96492.19;5053593;28;20033;-63
2021/07/07 06:54:13;;;;;;;7.15;5.28;;;;;;;25.17;61.48;96489.03;5053661;28;20059;-63
2021/07/07 06:56:39;;;;;;;6.90;5.60;;;;;;;25.12;60.95;96491.31;5053567;28;20044;-63
2021/07/07 06:59:05;;;;;;;8.25;5.60;;;;;;;24.99;61.47;96480.97;5053641;28;20448;-64
2021/07/07 07:01:30;;;;;;;9.75;5.75;;;;;;;24.99;61.73;96486.34;5053460;28;20029;-65
2021/07/07 07:03:56;;;;;;;6.95;5.88;;;;;;;24.83;62.17;96489.66;5053523;28;20116;-63
2021/07/07 07:06:21;;;;;;;7.85;5.47;;;;;;;24.86;62.09;96490.16;5053322;28;20047;-64
2021/07/07 07:08:47;;;;;;;6.32;5.72;;;;;;;24.85;60.66;96490.31;5053421;28;20025;-63
2021/07/07 07:11:17;;;;;;;8.15;6.43;;;;;;;24.68;61.66;96497.31;5053446;28;20417;-63
2021/07/07 07:13:44;;;;;;;6.85;6.25;;;;;;;24.67;61.52;96490.25;5053407;28;20028;-63
2021/07/07 07:16:09;;;;;;;6.22;5.72;;;;;;;24.64;61.78;96509.28;5053360;28;20083;-63
2021/07/07 07:18:35;;;;;;;7.38;6.55;;;;;;;24.71;63.14;96503.19;5053171;28;20022;-64
2021/07/07 07:21:00;;;;;;;7.20;6.50;;;;;;;24.72;62.43;96501.38;5053207;28;20082;-64
2021/07/07 07:23:26;;;;;;;8.90;6.45;;;;;;;24.88;61.48;96506.09;5053257;28;20028;-64
2021/07/07 07:25:51;;;;;;;6.15;5.55;;;;;;;24.97;61.44;96507.03;5053126;28;20453;-65
2021/07/07 07:28:17;;;;;;;7.65;5.63;;;;;;;25.06;61.95;96511.47;5051835;28;20036;-62
2021/07/07 07:30:43;;;;;;;5.95;5.45;;;;;;;25.14;60.75;96516.09;5053158;28;20036;-63
2021/07/07 07:33:08;;;;;;;6.45;5.85;;;;;;;25.18;60.69;96516.59;5053001;28;20100;-65
2021/07/07 07:35:34;;;;;;;7.63;5.93;;;;;;;25.21;59.57;96516.31;5053295;28;20017;-61
2021/07/07 07:40:34;;;;;;;5.50;5.00;;;;;;;25.36;60.46;96512.13;5052983;28;20501;-65
2021/07/07 07:43:00;;;;;;;5.57;4.97;;;;;;;25.62;60.12;96521.25;5052954;28;20445;-63
2021/07/07 07:45:25;;;;;;;9.48;5.15;;;;;;;25.81;58.88;96520.25;5052921;28;20100;-66
2021/07/07 07:47:51;;;;;;;6.30;4.85;;;;;;;25.86;59.60;96512.56;5052623;28;20037;-66
2021/07/07 07:50:17;;;;;;;4.97;4.55;;;;;;;25.97;58.63;96514.16;5051614;28;20017;-62
2021/07/07 07:52:44;;;;;;;8.02;5.32;;;;;;;26.10;59.61;96524.44;5052889;28;20036;-65
2021/07/07 07:55:11;;;;;;;12.20;5.22;;;;;;;26.24;60.78;96519.50;5052883;28;20107;-66
2021/07/07 07:57:38;;;;;;;8.43;4.65;;;;;;;26.35;57.16;96521.97;5052890;28;20041;-62
2021/07/07 08:00:07;;;;;;;5.57;4.70;;;;;;;26.45;59.21;96529.03;5052852;28;20470;-63
2021/07/07 08:02:32;;;;;;;7.57;5.07;;;;;;;26.51;58.41;96524.91;5052729;28;20056;-65
2021/07/07 08:04:58;;;;;;;6.35;4.20;;;;;;;26.57;55.90;96518.88;5052653;28;20057;-65
2021/07/07 08:07:27;;;;;;;4.72;4.18;;;;;;;26.66;55.44;96519.78;5052697;28;20053;-66
2021/07/07 08:09:52;;;;;;;4.65;4.25;;;;;;;26.61;54.21;96520.28;5052776;28;20116;-66
2021/07/07 08:12:18;;;;;;;4.80;4.30;;;;;;;26.58;54.15;96517.91;5052755;28;20109;-62
2021/07/07 08:14:44;;;;;;;4.65;3.40;;;;;;;26.57;54.04;96521.56;5052693;28;20525;-64
2021/07/07 08:17:10;;;;;;;5.03;3.58;;;;;;;26.61;53.16;96528.31;5052470;28;20017;-63
2021/07/07 08:19:35;;;;;;;6.10;3.60;;;;;;;26.79;53.45;96522.84;5052574;28;20025;-61
2021/07/07 08:22:01;;;;;;;6.85;4.00;;;;;;;27.58;53.84;96520.88;5052629;28;20391;-61
2021/07/07 08:24:27;;;;;;;4.53;3.53;;;;;;;28.35;50.43;96521.56;5052673;28;20025;-62
2021/07/07 08:26:54;;;;;;;4.40;3.70;;;;;;;28.99;52.08;96520.66;5052504;28;20499;-64
2021/07/07 08:29:21;;;;;;;3.88;3.50;;;;;;;29.31;47.69;96530.63;5052526;28;20035;-66
2021/07/07 08:31:46;;;;;;;4.07;3.63;;;;;;;29.31;48.03;96527.94;5052513;28;20386;-66
2021/07/07 08:34:12;;;;;;;14.07;4.35;;;;;;;29.24;47.94;96525.94;5052562;28;20017;-65
2021/07/07 08:36:37;;;;;;;4.20;3.70;;;;;;;29.41;47.73;96528.53;5052643;28;20017;-65
2021/07/07 08:39:04;;;;;;;4.68;3.60;;;;;;;29.28;48.45;96526.41;5052454;28;20064;-65
2021/07/07 08:41:31;;;;;;;4.45;3.40;;;;;;;29.24;47.58;96525.94;5052453;28;20033;-66
2021/07/07 08:43:56;;;;;;;3.97;3.60;;;;;;;29.47;47.27;96526.97;5052592;28;20053;-66
2021/07/07 08:46:22;;;;;;;3.95;3.50;;;;;;;29.66;47.90;96533.78;5055871;28;20516;-63
2021/07/07 08:48:47;;;;;;;4.30;3.55;;;;;;;29.82;46.90;96530.09;5055891;28;20568;-66
2021/07/07 08:51:13;;;;;;;4.25;3.70;;;;;;;29.84;46.14;96530.78;5055952;28;20032;-67
2021/07/07 08:53:41;;;;;;;6.03;3.60;;;;;;;30.16;46.03;96528.00;5055825;28;20021;-65
2021/07/07 08:56:07;;;;;;;4.43;3.60;;;;;;;30.24;47.99;96535.16;5055864;28;20094;-66
2021/07/07 08:58:32;;;;;;;5.05;3.33;;;;;;;30.08;45.10;96528.88;5055781;28;20467;-64
2021/07/07 09:00:59;;;;;;;7.10;4.07;;;;;;;30.07;47.51;96542.53;5055816;28;20028;-64
2021/07/07 09:03:25;;;;;;;4.18;3.60;;;;;;;30.01;47.55;96533.31;5055738;28;20051;-63
2021/07/07 09:06:03;;;;;;;4.10;3.22;;;;;;;29.83;45.46;96544.41;5055769;28;20483;-62
2021/07/07 09:08:35;;;;;;;6.03;3.40;;;;;;;29.85;46.48;96542.38;5055656;28;20045;-65
2021/07/07 09:11:27;;;;;;;4.72;3.63;;;;;;;30.07;46.06;96547.94;5055513;28;20066;-63
2021/07/07 09:14:10;;;;;;;4.07;3.15;;;;;;;29.97;46.81;96546.31;5053041;28;20057;-62
2021/07/07 09:16:52;;;;;;;7.70;3.42;;;;;;;30.07;44.34;96558.72;5055505;28;20124;-63
2021/07/07 09:19:20;;;;;;;4.78;3.25;;;;;;;29.91;45.61;96557.81;5055477;28;20107;-65
2021/07/07 09:21:52;;;;;;;5.60;3.53;;;;;;;30.12;45.48;96550.91;5055287;28;20083;-68
2021/07/07 09:24:23;;;;;;;6.10;3.63;;;;;;;29.89;45.33;96554.50;5055362;28;20028;-67
2021/07/07 09:26:59;;;;;;;6.63;3.70;;;;;;;30.14;46.96;96557.81;5055433;28;20489;-65
2021/07/07 09:29:33;;;;;;;4.30;3.20;;;;;;;30.49;44.44;96562.72;5055274;28;20040;-63
2021/07/07 09:32:12;;;;;;;3.55;3.20;;;;;;;30.24;43.50;96565.66;5055247;28;20025;-67
2021/07/07 09:34:39;;;;;;;3.75;3.45;;;;;;;30.04;43.22;96573.41;5055186;28;20027;-67
2021/07/07 09:37:08;;;;;;;6.00;3.30;;;;;;;29.90;45.53;96558.84;5054970;28;20052;-66
2021/07/07 09:39:34;;;;;;;4.43;3.20;;;;;;;29.91;45.29;96557.81;5055134;28;20025;-65
2021/07/07 09:42:00;;;;;;;6.95;3.30;;;;;;;30.01;44.12;96562.97;5055036;28;20067;-63
2021/07/07 09:44:32;;;;;;;4.97;3.05;;;;;;;29.98;44.85;96566.03;5054975;28;20424;-67
2021/07/07 09:46:58;;;;;;;3.53;2.90;;;;;;;29.92;46.15;96556.81;5054797;28;20497;-67
2021/07/07 09:49:25;;;;;;;6.55;2.90;;;;;;;29.90;44.75;96564.25;5055000;28;20017;-67
2021/07/07 09:51:50;;;;;;;3.53;3.03;;;;;;;29.83;44.43;96568.69;5054954;28;20028;-64
2021/07/07 09:54:19;;;;;;;4.43;3.28;;;;;;;29.84;45.58;96562.25;5054717;28;20028;-67
2021/07/07 09:56:45;;;;;;;4.90;3.50;;;;;;;29.80;45.22;96556.41;5054652;28;20204;-63
2021/07/07 09:59:11;;;;;;;5.10;3.03;;;;;;;29.57;45.29;96557.25;5054649;28;20013;-63
2021/07/07 10:01:37;;;;;;;4.88;3.60;;;;;;;29.49;45.52;96558.09;5054727;28;20032;-63
2021/07/07 10:04:03;;;;;;;4.28;3.55;;;;;;;29.35;45.94;96546.22;5054562;28;20029;-62
2021/07/07 10:06:29;;;;;;;4.50;3.47;;;;;;;29.47;43.81;96552.03;5054437;28;20024;-65
2021/07/07 10:08:56;;;;;;;3.72;3.33;;;;;;;29.60;45.54;96547.97;5054626;28;20101;-66
2021/07/07 10:11:22;;;;;;;4.28;3.15;;;;;;;29.51;44.44;96553.38;5054361;28;20021;-63
2021/07/07 10:13:49;;;;;;;3.20;2.88;;;;;;;29.37;44.23;96546.88;5054499;28;20043;-64
2021/07/07 10:16:18;;;;;;;5.93;3.63;;;;;;;29.52;47.29;96556.91;5054423;28;20020;-61
2021/07/07 10:18:45;;;;;;;3.53;3.23;;;;;;;29.72;44.81;96557.31;5054223;28;20109;-64
2021/07/07 10:21:12;;;;;;;3.53;3.20;;;;;;;29.92;44.39;96539.81;5054299;28;20258;-61
2021/07/07 10:23:39;;;;;;;6.60;3.25;;;;;;;29.66;43.92;96541.00;5054213;28;20044;-62
2021/07/07 10:26:06;;;;;;;5.63;3.22;;;;;;;29.54;44.66;96551.31;5054182;28;20035;-62
2021/07/07 10:28:33;;;;;;;4.78;3.00;;;;;;;29.38;44.52;96539.66;5054323;28;20021;-61
2021/07/07 10:31:03;;;;;;;7.50;3.15;;;;;;;29.43;44.63;96539.13;5054036;28;20553;-65
2021/07/07 10:33:31;;;;;;;5.82;3.35;;;;;;;29.66;43.41;96538.31;5054176;28;20550;-64
2021/07/07 10:36:23;;;;;;;3.50;3.10;;;;;;;29.77;44.30;96546.00;5054188;28;20112;-67
2021/07/07 10:38:57;;;;;;;5.50;3.58;;;;;;;29.83;43.96;96547.13;5053890;28;20060;-63
2021/07/07 10:41:48;;;;;;;4.82;3.67;;;;;;;29.77;43.12;96546.81;5053947;28;20024;-63
2021/07/07 10:44:22;;;;;;;3.63;3.33;;;;;;;29.56;44.85;96544.78;5053732;28;20044;-66
2021/07/07 10:47:02;;;;;;;9.52;3.75;;;;;;;29.48;45.66;96548.34;5053713;28;20040;-65
2021/07/07 10:49:37;;;;;;;4.53;3.35;;;;;;;29.67;45.02;96546.22;5053914;28;20102;-64
2021/07/07 10:52:03;;;;;;;3.97;3.33;;;;;;;29.84;45.14;96549.63;5053800;28;20356;-63
2021/07/07 10:54:31;;;;;;;4.25;3.65;;;;;;;29.71;43.87;96539.44;5053769;28;20029;-64
2021/07/07 10:56:58;;;;;;;4.90;3.60;;;;;;;29.64;44.44;96536.66;5053728;28;20482;-65
2021/07/07 10:59:46;;;;;;;4.90;3.42;;;;;;;29.52;44.20;96544.28;5053534;28;20028;-65
2021/07/07 11:02:15;;;;;;;4.72;4.03;;;;;;;29.45;45.32;96543.31;5050143;28;20041;-63
2021/07/07 11:04:48;;;;;;;4.00;3.60;;;;;;;29.50;45.38;96542.78;5053528;28;20052;-68
2021/07/07 11:07:32;;;;;;;4.53;3.40;;;;;;;29.59;44.57;96539.03;5053098;28;20052;-66
2021/07/07 11:10:00;;;;;;;4.20;3.80;;;;;;;29.79;45.86;96541.25;5053386;28;20107;-64
2021/07/07 11:12:35;;;;;;;6.97;3.67;;;;;;;29.89;45.37;96544.53;5053343;28;20037;-63
2021/07/07 11:15:04;;;;;;;5.45;4.32;;;;;;;29.89;46.32;96539.13;5053620;28;20036;-63
2021/07/07 11:17:34;;;;;;;4.60;3.72;;;;;;;29.91;45.29;96544.34;5053233;28;20025;-61
2021/07/07 11:20:13;;;;;;;4.03;3.60;;;;;;;29.91;44.68;96527.34;5053381;28;20049;-66
2021/07/07 11:22:41;;;;;;;5.30;3.83;;;;;;;29.76;44.47;96533.50;5053262;28;20072;-61
2021/07/07 11:25:12;;;;;;;4.57;4.03;;;;;;;29.87;44.18;96526.88;5053243;28;20116;-64
2021/07/07 11:27:38;;;;;;;5.20;4.05;;;;;;;29.86;44.23;96542.19;5053173;28;20471;-66
2021/07/07 11:30:07;;;;;;;4.35;3.95;;;;;;;30.00;45.56;96528.94;5053137;28;20033;-64
2021/07/07 11:32:36;;;;;;;7.68;3.85;;;;;;;30.00;43.87;96527.09;5053090;28;20025;-64
2021/07/07 11:35:16;;;;;;;5.00;3.75;;;;;;;30.28;45.55;96523.00;5053128;28;20044;-65